sensor_id;sensor_type;location;lat;lon;timestamp;temperature;humidity
58309;DHT22;44117;57.142;24.826;2022-09-13T00:01:49;9.40;99.90
58309;DHT22;44117;57.142;24.826;2022-09-13T00:04:17;9.40;99.90
58309;DHT22;44117;57.142;24.826;2022-09-13T00:06:44;9.40;99.90
58309;DHT22;44117;57.142;24.826;2022-09-13T00:09:11;9.40;99.90
58309;DHT22;44117;57.142;24.826;2022-09-13T00:11:39;9.40;99.90
58309;DHT22;44117;57.142;24.826;2022-09-13T00:14:06;9.30;99.90
58309;DHT22;44117;57.142;24.826;2022-09-13T00:16:33;9.30;99.90
58309;DHT22;44117;57.142;24.826;2022-09-13T00:19:01;9.20;99.90
58309;DHT22;44117;57.142;24.826;2022-09-13T00:21:28;9.20;99.90
58309;DHT22;44117;57.142;24.826;2022-09-13T00:23:56;9.30;99.90
58309;DHT22;44117;57.142;24.826;2022-09-13T00:26:26;9.30;99.90
58309;DHT22;44117;57.142;24.826;2022-09-13T00:28:56;9.30;99.90
58309;DHT22;44117;57.142;24.826;2022-09-13T00:31:25;9.30;99.90
58309;DHT22;44117;57.142;24.826;2022-09-13T00:33:54;9.30;99.90
58309;DHT22;44117;57.142;24.826;2022-09-13T00:36:21;9.30;99.90
58309;DHT22;44117;57.142;24.826;2022-09-13T00:38:48;9.20;99.90
58309;DHT22;44117;57.142;24.826;2022-09-13T00:41:20;9.30;99.90
58309;DHT22;44117;57.142;24.826;2022-09-13T00:43:54;9.30;99.90
58309;DHT22;44117;57.142;24.826;2022-09-13T00:46:38;9.30;99.90
58309;DHT22;44117;57.142;24.826;2022-09-13T00:49:20;9.30;99.90
58309;DHT22;44117;57.142;24.826;2022-09-13T00:51:53;9.30;99.90
58309;DHT22;44117;57.142;24.826;2022-09-13T00:54:24;9.30;99.90
58309;DHT22;44117;57.142;24.826;2022-09-13T00:56:55;9.30;99.90
58309;DHT22;44117;57.142;24.826;2022-09-13T00:59:39;9.30;99.90
58309;DHT22;44117;57.142;24.826;2022-09-13T01:02:08;9.30;99.90
58309;DHT22;44117;57.142;24.826;2022-09-13T01:04:36;9.30;99.90
58309;DHT22;44117;57.142;24.826;2022-09-13T01:07:09;9.40;99.90
58309;DHT22;44117;57.142;24.826;2022-09-13T01:09:41;9.40;99.90
58309;DHT22;44117;57.142;24.826;2022-09-13T01:15:22;9.50;99.90
58309;DHT22;44117;57.142;24.826;2022-09-13T01:17:51;9.50;99.90
58309;DHT22;44117;57.142;24.826;2022-09-13T01:20:23;9.50;99.90
58309;DHT22;44117;57.142;24.826;2022-09-13T01:23:11;9.50;99.90
58309;DHT22;44117;57.142;24.826;2022-09-13T01:32:03;9.50;99.90
58309;DHT22;44117;57.142;24.826;2022-09-13T01:37:53;9.50;99.90
58309;DHT22;44117;57.142;24.826;2022-09-13T01:46:03;9.50;99.90
58309;DHT22;44117;57.142;24.826;2022-09-13T01:51:16;9.60;99.90
58309;DHT22;44117;57.142;24.826;2022-09-13T02:02:09;9.60;99.90
58309;DHT22;44117;57.142;24.826;2022-09-13T02:04:45;9.60;99.90
58309;DHT22;44117;57.142;24.826;2022-09-13T02:07:30;9.50;99.90
58309;DHT22;44117;57.142;24.826;2022-09-13T02:13:04;9.50;99.90
58309;DHT22;44117;57.142;24.826;2022-09-13T02:15:48;9.50;99.90
58309;DHT22;44117;57.142;24.826;2022-09-13T02:20:54;9.40;99.90
58309;DHT22;44117;57.142;24.826;2022-09-13T02:23:31;9.40;99.90
58309;DHT22;44117;57.142;24.826;2022-09-13T02:26:03;9.40;99.90
58309;DHT22;44117;57.142;24.826;2022-09-13T02:28:36;9.30;99.90
58309;DHT22;44117;57.142;24.826;2022-09-13T02:31:07;9.40;99.90
58309;DHT22;44117;57.142;24.826;2022-09-13T02:33:42;9.30;99.90
58309;DHT22;44117;57.142;24.826;2022-09-13T02:36:19;9.30;99.90
58309;DHT22;44117;57.142;24.826;2022-09-13T02:38:53;9.30;99.90
58309;DHT22;44117;57.142;24.826;2022-09-13T02:41:45;9.30;99.90
58309;DHT22;44117;57.142;24.826;2022-09-13T02:44:30;9.30;99.90
58309;DHT22;44117;57.142;24.826;2022-09-13T02:50:02;9.30;99.90
58309;DHT22;44117;57.142;24.826;2022-09-13T02:57:39;9.40;99.90
58309;DHT22;44117;57.142;24.826;2022-09-13T03:00:08;9.30;99.90
58309;DHT22;44117;57.142;24.826;2022-09-13T03:02:37;9.40;99.90
58309;DHT22;44117;57.142;24.826;2022-09-13T03:05:05;9.40;99.90
58309;DHT22;44117;57.142;24.826;2022-09-13T03:07:33;9.40;99.90
58309;DHT22;44117;57.142;24.826;2022-09-13T03:10:06;9.40;99.90
58309;DHT22;44117;57.142;24.826;2022-09-13T03:15:43;9.40;99.90
58309;DHT22;44117;57.142;24.826;2022-09-13T03:18:36;9.40;99.90
58309;DHT22;44117;57.142;24.826;2022-09-13T03:21:53;9.50;99.90
58309;DHT22;44117;57.142;24.826;2022-09-13T03:24:49;9.50;99.90
58309;DHT22;44117;57.142;24.826;2022-09-13T03:30:10;9.50;99.90
58309;DHT22;44117;57.142;24.826;2022-09-13T03:35:43;9.50;99.90
58309;DHT22;44117;57.142;24.826;2022-09-13T03:38:24;9.50;99.90
58309;DHT22;44117;57.142;24.826;2022-09-13T03:41:05;9.50;99.90
58309;DHT22;44117;57.142;24.826;2022-09-13T03:43:51;9.50;99.90
58309;DHT22;44117;57.142;24.826;2022-09-13T03:46:35;9.50;99.90
58309;DHT22;44117;57.142;24.826;2022-09-13T03:49:07;9.50;99.90
58309;DHT22;44117;57.142;24.826;2022-09-13T03:51:35;9.50;99.90
58309;DHT22;44117;57.142;24.826;2022-09-13T03:54:18;9.60;99.90
58309;DHT22;44117;57.142;24.826;2022-09-13T03:57:24;9.50;99.90
58309;DHT22;44117;57.142;24.826;2022-09-13T03:59:55;9.50;99.90
58309;DHT22;44117;57.142;24.826;2022-09-13T04:02:24;9.50;99.90
58309;DHT22;44117;57.142;24.826;2022-09-13T04:04:52;9.50;99.90
58309;DHT22;44117;57.142;24.826;2022-09-13T04:07:22;9.50;99.90
58309;DHT22;44117;57.142;24.826;2022-09-13T04:09:50;9.60;99.90
58309;DHT22;44117;57.142;24.826;2022-09-13T04:12:17;9.60;99.90
58309;DHT22;44117;57.142;24.826;2022-09-13T04:14:44;9.60;99.90
58309;DHT22;44117;57.142;24.826;2022-09-13T04:17:12;9.70;99.90
58309;DHT22;44117;57.142;24.826;2022-09-13T04:19:40;9.70;99.90
58309;DHT22;44117;57.142;24.826;2022-09-13T04:22:08;9.70;99.90
58309;DHT22;44117;57.142;24.826;2022-09-13T04:24:35;9.70;99.90
58309;DHT22;44117;57.142;24.826;2022-09-13T04:27:05;9.70;99.90
58309;DHT22;44117;57.142;24.826;2022-09-13T04:29:32;9.70;99.90
58309;DHT22;44117;57.142;24.826;2022-09-13T04:32:00;9.70;99.90
58309;DHT22;44117;57.142;24.826;2022-09-13T04:34:27;9.80;99.90
58309;DHT22;44117;57.142;24.826;2022-09-13T04:36:55;9.80;99.90
58309;DHT22;44117;57.142;24.826;2022-09-13T04:39:23;9.80;99.90
58309;DHT22;44117;57.142;24.826;2022-09-13T04:41:51;9.90;99.90
58309;DHT22;44117;57.142;24.826;2022-09-13T04:44:21;9.90;99.90
58309;DHT22;44117;57.142;24.826;2022-09-13T04:46:49;9.90;99.90
58309;DHT22;44117;57.142;24.826;2022-09-13T04:49:17;10.00;99.90
58309;DHT22;44117;57.142;24.826;2022-09-13T04:51:46;10.00;99.90
58309;DHT22;44117;57.142;24.826;2022-09-13T04:54:14;10.00;99.90
58309;DHT22;44117;57.142;24.826;2022-09-13T04:56:45;10.10;99.90
58309;DHT22;44117;57.142;24.826;2022-09-13T04:59:13;10.10;99.90
58309;DHT22;44117;57.142;24.826;2022-09-13T05:01:40;10.10;99.90
58309;DHT22;44117;57.142;24.826;2022-09-13T05:04:09;10.20;99.90
58309;DHT22;44117;57.142;24.826;2022-09-13T05:06:36;10.10;99.90
58309;DHT22;44117;57.142;24.826;2022-09-13T05:09:04;10.20;99.90
58309;DHT22;44117;57.142;24.826;2022-09-13T05:11:32;10.10;99.90
58309;DHT22;44117;57.142;24.826;2022-09-13T05:13:59;10.10;99.90
58309;DHT22;44117;57.142;24.826;2022-09-13T05:16:29;10.20;99.90
58309;DHT22;44117;57.142;24.826;2022-09-13T05:18:58;10.20;99.90
58309;DHT22;44117;57.142;24.826;2022-09-13T05:21:27;10.20;99.90
58309;DHT22;44117;57.142;24.826;2022-09-13T05:23:55;10.10;99.90
58309;DHT22;44117;57.142;24.826;2022-09-13T05:26:25;10.20;99.90
58309;DHT22;44117;57.142;24.826;2022-09-13T05:28:52;10.20;99.90
58309;DHT22;44117;57.142;24.826;2022-09-13T05:31:22;10.20;99.90
58309;DHT22;44117;57.142;24.826;2022-09-13T05:33:59;10.10;99.90
58309;DHT22;44117;57.142;24.826;2022-09-13T05:36:27;10.20;99.90
58309;DHT22;44117;57.142;24.826;2022-09-13T05:38:55;10.20;99.90
58309;DHT22;44117;57.142;24.826;2022-09-13T05:41:43;10.20;99.90
58309;DHT22;44117;57.142;24.826;2022-09-13T05:44:11;10.20;99.90
58309;DHT22;44117;57.142;24.826;2022-09-13T05:46:40;10.20;99.90
58309;DHT22;44117;57.142;24.826;2022-09-13T05:49:10;10.30;99.90
58309;DHT22;44117;57.142;24.826;2022-09-13T05:51:38;10.30;99.90
58309;DHT22;44117;57.142;24.826;2022-09-13T05:54:05;10.40;99.90
58309;DHT22;44117;57.142;24.826;2022-09-13T05:56:33;10.40;99.90
58309;DHT22;44117;57.142;24.826;2022-09-13T05:59:00;10.40;99.90
58309;DHT22;44117;57.142;24.826;2022-09-13T06:01:28;10.40;99.90
58309;DHT22;44117;57.142;24.826;2022-09-13T06:03:57;10.40;99.90
58309;DHT22;44117;57.142;24.826;2022-09-13T06:06:25;10.40;99.90
58309;DHT22;44117;57.142;24.826;2022-09-13T06:08:56;10.40;99.90
58309;DHT22;44117;57.142;24.826;2022-09-13T06:11:24;10.40;99.90
58309;DHT22;44117;57.142;24.826;2022-09-13T06:13:54;10.50;99.90
58309;DHT22;44117;57.142;24.826;2022-09-13T06:16:23;10.50;99.90
58309;DHT22;44117;57.142;24.826;2022-09-13T06:18:50;10.50;99.90
58309;DHT22;44117;57.142;24.826;2022-09-13T06:21:20;10.60;99.90
58309;DHT22;44117;57.142;24.826;2022-09-13T06:23:55;10.70;99.90
58309;DHT22;44117;57.142;24.826;2022-09-13T06:26:26;10.70;99.90
58309;DHT22;44117;57.142;24.826;2022-09-13T06:28:56;10.70;99.90
58309;DHT22;44117;57.142;24.826;2022-09-13T06:31:26;10.80;99.90
58309;DHT22;44117;57.142;24.826;2022-09-13T06:33:59;10.70;99.90
58309;DHT22;44117;57.142;24.826;2022-09-13T06:36:29;10.90;99.90
58309;DHT22;44117;57.142;24.826;2022-09-13T06:38:57;10.90;99.90
58309;DHT22;44117;57.142;24.826;2022-09-13T06:41:27;10.90;99.90
58309;DHT22;44117;57.142;24.826;2022-09-13T06:43:56;10.80;99.90
58309;DHT22;44117;57.142;24.826;2022-09-13T06:46:25;10.90;99.90
58309;DHT22;44117;57.142;24.826;2022-09-13T06:48:54;10.90;99.90
58309;DHT22;44117;57.142;24.826;2022-09-13T06:51:24;11.00;99.90
58309;DHT22;44117;57.142;24.826;2022-09-13T06:53:52;11.00;99.90
58309;DHT22;44117;57.142;24.826;2022-09-13T06:56:34;11.00;99.90
58309;DHT22;44117;57.142;24.826;2022-09-13T06:59:04;11.10;99.90
58309;DHT22;44117;57.142;24.826;2022-09-13T07:01:37;11.20;99.90
58309;DHT22;44117;57.142;24.826;2022-09-13T07:04:07;11.30;99.90
58309;DHT22;44117;57.142;24.826;2022-09-13T07:06:37;11.40;99.90
58309;DHT22;44117;57.142;24.826;2022-09-13T07:09:08;11.50;99.90
58309;DHT22;44117;57.142;24.826;2022-09-13T07:11:38;11.50;99.90
58309;DHT22;44117;57.142;24.826;2022-09-13T07:14:07;11.50;99.90
58309;DHT22;44117;57.142;24.826;2022-09-13T07:16:36;11.50;99.90
58309;DHT22;44117;57.142;24.826;2022-09-13T07:19:06;11.60;99.90
58309;DHT22;44117;57.142;24.826;2022-09-13T07:21:34;11.60;99.90
58309;DHT22;44117;57.142;24.826;2022-09-13T07:24:03;11.50;99.90
58309;DHT22;44117;57.142;24.826;2022-09-13T07:26:31;11.50;99.90
58309;DHT22;44117;57.142;24.826;2022-09-13T07:29:00;11.60;99.90
58309;DHT22;44117;57.142;24.826;2022-09-13T07:31:37;11.60;99.90
58309;DHT22;44117;57.142;24.826;2022-09-13T07:34:09;11.50;99.90
58309;DHT22;44117;57.142;24.826;2022-09-13T07:36:37;11.40;99.90
58309;DHT22;44117;57.142;24.826;2022-09-13T07:39:05;11.30;99.90
58309;DHT22;44117;57.142;24.826;2022-09-13T07:41:38;11.30;99.90
58309;DHT22;44117;57.142;24.826;2022-09-13T07:44:05;11.30;99.90
58309;DHT22;44117;57.142;24.826;2022-09-13T07:46:35;11.30;99.90
58309;DHT22;44117;57.142;24.826;2022-09-13T07:49:06;11.50;99.90
58309;DHT22;44117;57.142;24.826;2022-09-13T07:51:35;11.60;99.90
58309;DHT22;44117;57.142;24.826;2022-09-13T07:54:08;11.60;99.90
58309;DHT22;44117;57.142;24.826;2022-09-13T07:56:38;11.60;99.90
58309;DHT22;44117;57.142;24.826;2022-09-13T07:59:09;11.50;99.90
58309;DHT22;44117;57.142;24.826;2022-09-13T08:01:48;11.50;99.90
58309;DHT22;44117;57.142;24.826;2022-09-13T08:04:19;11.50;99.90
58309;DHT22;44117;57.142;24.826;2022-09-13T08:06:50;11.40;99.90
58309;DHT22;44117;57.142;24.826;2022-09-13T08:09:17;11.50;99.90
58309;DHT22;44117;57.142;24.826;2022-09-13T08:11:47;11.60;99.90
58309;DHT22;44117;57.142;24.826;2022-09-13T08:14:16;11.80;99.90
58309;DHT22;44117;57.142;24.826;2022-09-13T08:16:44;11.80;99.90
58309;DHT22;44117;57.142;24.826;2022-09-13T08:19:14;11.80;99.90
58309;DHT22;44117;57.142;24.826;2022-09-13T08:21:42;11.80;99.90
58309;DHT22;44117;57.142;24.826;2022-09-13T08:24:15;11.80;99.90
58309;DHT22;44117;57.142;24.826;2022-09-13T08:26:43;11.70;99.90
58309;DHT22;44117;57.142;24.826;2022-09-13T08:29:11;11.50;99.90
58309;DHT22;44117;57.142;24.826;2022-09-13T08:31:39;11.40;99.90
58309;DHT22;44117;57.142;24.826;2022-09-13T08:34:10;11.30;99.90
58309;DHT22;44117;57.142;24.826;2022-09-13T08:36:37;11.30;99.90
58309;DHT22;44117;57.142;24.826;2022-09-13T08:39:08;11.30;99.90
58309;DHT22;44117;57.142;24.826;2022-09-13T08:44:10;11.20;99.90
58309;DHT22;44117;57.142;24.826;2022-09-13T08:46:44;11.20;99.90
58309;DHT22;44117;57.142;24.826;2022-09-13T08:49:17;11.30;99.90
58309;DHT22;44117;57.142;24.826;2022-09-13T08:51:53;11.30;99.90
58309;DHT22;44117;57.142;24.826;2022-09-13T08:54:22;11.40;99.90
58309;DHT22;44117;57.142;24.826;2022-09-13T08:57:15;11.50;99.90
58309;DHT22;44117;57.142;24.826;2022-09-13T09:05:21;11.50;99.90
58309;DHT22;44117;57.142;24.826;2022-09-13T09:08:02;11.50;99.90
58309;DHT22;44117;57.142;24.826;2022-09-13T09:10:38;11.60;99.90
58309;DHT22;44117;57.142;24.826;2022-09-13T09:15:55;12.10;99.90
58309;DHT22;44117;57.142;24.826;2022-09-13T09:18:28;12.10;99.90
58309;DHT22;44117;57.142;24.826;2022-09-13T09:20:59;12.20;99.90
58309;DHT22;44117;57.142;24.826;2022-09-13T09:23:36;12.30;99.90
58309;DHT22;44117;57.142;24.826;2022-09-13T09:26:47;12.40;99.90
58309;DHT22;44117;57.142;24.826;2022-09-13T09:35:19;12.10;99.90
58309;DHT22;44117;57.142;24.826;2022-09-13T09:40:48;12.00;99.90
58309;DHT22;44117;57.142;24.826;2022-09-13T09:43:24;11.90;99.90
58309;DHT22;44117;57.142;24.826;2022-09-13T09:45:54;11.90;99.90
58309;DHT22;44117;57.142;24.826;2022-09-13T09:48:26;11.90;99.90
58309;DHT22;44117;57.142;24.826;2022-09-13T09:50:57;11.80;99.90
58309;DHT22;44117;57.142;24.826;2022-09-13T09:53:38;11.90;99.90
58309;DHT22;44117;57.142;24.826;2022-09-13T09:56:25;11.70;99.90
58309;DHT22;44117;57.142;24.826;2022-09-13T09:58:53;11.70;99.90
58309;DHT22;44117;57.142;24.826;2022-09-13T10:01:36;11.70;99.90
58309;DHT22;44117;57.142;24.826;2022-09-13T10:04:14;11.70;99.90
58309;DHT22;44117;57.142;24.826;2022-09-13T10:06:44;11.80;99.90
58309;DHT22;44117;57.142;24.826;2022-09-13T10:09:14;11.90;99.90
58309;DHT22;44117;57.142;24.826;2022-09-13T10:11:49;11.90;99.90
58309;DHT22;44117;57.142;24.826;2022-09-13T10:19:39;12.30;99.90
58309;DHT22;44117;57.142;24.826;2022-09-13T10:22:11;12.20;99.90
58309;DHT22;44117;57.142;24.826;2022-09-13T10:24:39;12.20;99.90
58309;DHT22;44117;57.142;24.826;2022-09-13T10:27:28;12.10;99.90
58309;DHT22;44117;57.142;24.826;2022-09-13T10:29:59;12.10;99.90
58309;DHT22;44117;57.142;24.826;2022-09-13T10:32:28;11.90;99.90
58309;DHT22;44117;57.142;24.826;2022-09-13T10:35:07;11.90;99.90
58309;DHT22;44117;57.142;24.826;2022-09-13T10:37:36;11.80;99.90
58309;DHT22;44117;57.142;24.826;2022-09-13T10:40:19;11.90;99.90
58309;DHT22;44117;57.142;24.826;2022-09-13T10:42:57;12.00;99.90
58309;DHT22;44117;57.142;24.826;2022-09-13T10:45:27;12.20;99.90
58309;DHT22;44117;57.142;24.826;2022-09-13T10:48:04;12.40;99.90
58309;DHT22;44117;57.142;24.826;2022-09-13T10:50:36;12.80;99.90
58309;DHT22;44117;57.142;24.826;2022-09-13T10:53:04;12.90;99.90
58309;DHT22;44117;57.142;24.826;2022-09-13T10:55:54;12.80;99.90
58309;DHT22;44117;57.142;24.826;2022-09-13T10:58:21;12.80;99.90
58309;DHT22;44117;57.142;24.826;2022-09-13T11:09:36;12.40;99.90
58309;DHT22;44117;57.142;24.826;2022-09-13T11:12:16;12.40;99.90
58309;DHT22;44117;57.142;24.826;2022-09-13T11:15:06;12.40;99.90
58309;DHT22;44117;57.142;24.826;2022-09-13T11:18:18;12.30;99.90
58309;DHT22;44117;57.142;24.826;2022-09-13T11:24:06;12.30;99.90
58309;DHT22;44117;57.142;24.826;2022-09-13T11:26:48;12.20;99.90
58309;DHT22;44117;57.142;24.826;2022-09-13T11:29:33;12.20;99.90
58309;DHT22;44117;57.142;24.826;2022-09-13T11:46:33;12.50;99.90
58309;DHT22;44117;57.142;24.826;2022-09-13T11:52:03;12.40;99.90
58309;DHT22;44117;57.142;24.826;2022-09-13T11:57:18;12.20;99.90
58309;DHT22;44117;57.142;24.826;2022-09-13T12:00:04;12.30;99.90
58309;DHT22;44117;57.142;24.826;2022-09-13T12:02:51;12.30;99.90
58309;DHT22;44117;57.142;24.826;2022-09-13T12:05:24;12.30;99.90
58309;DHT22;44117;57.142;24.826;2022-09-13T12:08:16;12.40;99.90
58309;DHT22;44117;57.142;24.826;2022-09-13T12:10:54;12.60;99.90
58309;DHT22;44117;57.142;24.826;2022-09-13T12:13:28;12.70;99.90
58309;DHT22;44117;57.142;24.826;2022-09-13T12:16:06;12.90;99.90
58309;DHT22;44117;57.142;24.826;2022-09-13T12:18:50;13.00;99.90
58309;DHT22;44117;57.142;24.826;2022-09-13T12:21:24;13.00;99.90
58309;DHT22;44117;57.142;24.826;2022-09-13T12:29:27;13.30;99.90
58309;DHT22;44117;57.142;24.826;2022-09-13T12:31:59;13.50;99.90
58309;DHT22;44117;57.142;24.826;2022-09-13T13:02:44;13.40;99.90
58309;DHT22;44117;57.142;24.826;2022-09-13T13:08:00;13.60;99.90
58309;DHT22;44117;57.142;24.826;2022-09-13T13:10:33;13.60;99.90
58309;DHT22;44117;57.142;24.826;2022-09-13T13:13:13;13.40;99.90
58309;DHT22;44117;57.142;24.826;2022-09-13T13:18:29;13.40;99.90
58309;DHT22;44117;57.142;24.826;2022-09-13T13:23:36;13.10;99.90
58309;DHT22;44117;57.142;24.826;2022-09-13T13:31:41;13.20;99.90
58309;DHT22;44117;57.142;24.826;2022-09-13T13:36:43;13.20;99.90
58309;DHT22;44117;57.142;24.826;2022-09-13T13:41:56;13.60;99.90
58309;DHT22;44117;57.142;24.826;2022-09-13T13:46:52;13.70;99.90
58309;DHT22;44117;57.142;24.826;2022-09-13T13:57:32;13.90;99.90
58309;DHT22;44117;57.142;24.826;2022-09-13T14:19:47;13.40;99.90
58309;DHT22;44117;57.142;24.826;2022-09-13T14:22:28;13.20;99.90
58309;DHT22;44117;57.142;24.826;2022-09-13T14:24:59;13.60;99.90
58309;DHT22;44117;57.142;24.826;2022-09-13T14:27:39;14.20;99.90
58309;DHT22;44117;57.142;24.826;2022-09-13T14:32:54;15.30;99.90
58309;DHT22;44117;57.142;24.826;2022-09-13T14:38:19;15.60;99.30
58309;DHT22;44117;57.142;24.826;2022-09-13T14:40:48;15.40;99.00
58309;DHT22;44117;57.142;24.826;2022-09-13T14:43:22;15.60;98.90
58309;DHT22;44117;57.142;24.826;2022-09-13T14:51:06;15.10;99.10
58309;DHT22;44117;57.142;24.826;2022-09-13T14:53:35;14.60;99.90
58309;DHT22;44117;57.142;24.826;2022-09-13T14:56:07;14.40;99.90
58309;DHT22;44117;57.142;24.826;2022-09-13T14:58:45;14.20;99.90
58309;DHT22;44117;57.142;24.826;2022-09-13T15:01:18;13.90;99.90
58309;DHT22;44117;57.142;24.826;2022-09-13T15:03:49;13.60;99.90
58309;DHT22;44117;57.142;24.826;2022-09-13T15:06:23;13.40;99.90
58309;DHT22;44117;57.142;24.826;2022-09-13T15:08:52;13.20;99.90
58309;DHT22;44117;57.142;24.826;2022-09-13T15:11:35;13.10;99.90
58309;DHT22;44117;57.142;24.826;2022-09-13T15:14:25;13.00;99.90
58309;DHT22;44117;57.142;24.826;2022-09-13T15:17:07;13.00;99.90
58309;DHT22;44117;57.142;24.826;2022-09-13T15:19:40;12.90;99.90
58309;DHT22;44117;57.142;24.826;2022-09-13T15:22:31;12.80;99.90
58309;DHT22;44117;57.142;24.826;2022-09-13T15:25:00;12.80;99.90
58309;DHT22;44117;57.142;24.826;2022-09-13T15:27:30;12.70;99.90
58309;DHT22;44117;57.142;24.826;2022-09-13T15:30:00;12.70;99.90
58309;DHT22;44117;57.142;24.826;2022-09-13T15:32:39;12.70;99.90
58309;DHT22;44117;57.142;24.826;2022-09-13T15:35:39;12.60;99.90
58309;DHT22;44117;57.142;24.826;2022-09-13T15:38:28;12.60;99.90
58309;DHT22;44117;57.142;24.826;2022-09-13T15:41:10;12.60;99.90
58309;DHT22;44117;57.142;24.826;2022-09-13T15:43:38;12.50;99.90
58309;DHT22;44117;57.142;24.826;2022-09-13T15:46:08;12.50;99.90
58309;DHT22;44117;57.142;24.826;2022-09-13T15:48:38;12.50;99.90
58309;DHT22;44117;57.142;24.826;2022-09-13T15:51:14;12.50;99.90
58309;DHT22;44117;57.142;24.826;2022-09-13T15:53:43;12.40;99.90
58309;DHT22;44117;57.142;24.826;2022-09-13T15:56:34;12.30;99.90
58309;DHT22;44117;57.142;24.826;2022-09-13T15:59:05;12.30;99.90
58309;DHT22;44117;57.142;24.826;2022-09-13T16:01:33;12.30;99.90
58309;DHT22;44117;57.142;24.826;2022-09-13T16:04:00;12.20;99.90
58309;DHT22;44117;57.142;24.826;2022-09-13T16:06:30;12.10;99.90
58309;DHT22;44117;57.142;24.826;2022-09-13T16:08:57;12.00;99.90
58309;DHT22;44117;57.142;24.826;2022-09-13T16:11:26;12.00;99.90
58309;DHT22;44117;57.142;24.826;2022-09-13T16:13:54;12.00;99.90
58309;DHT22;44117;57.142;24.826;2022-09-13T16:16:21;12.00;99.90
58309;DHT22;44117;57.142;24.826;2022-09-13T16:18:48;12.00;99.90
58309;DHT22;44117;57.142;24.826;2022-09-13T16:21:16;11.90;99.90
58309;DHT22;44117;57.142;24.826;2022-09-13T16:23:43;11.90;99.90
58309;DHT22;44117;57.142;24.826;2022-09-13T16:26:10;11.80;99.90
58309;DHT22;44117;57.142;24.826;2022-09-13T16:28:38;11.80;99.90
58309;DHT22;44117;57.142;24.826;2022-09-13T16:31:05;11.70;99.90
58309;DHT22;44117;57.142;24.826;2022-09-13T16:33:32;11.70;99.90
58309;DHT22;44117;57.142;24.826;2022-09-13T16:36:00;11.60;99.90
58309;DHT22;44117;57.142;24.826;2022-09-13T16:38:28;11.50;99.90
58309;DHT22;44117;57.142;24.826;2022-09-13T16:40:55;11.50;99.90
58309;DHT22;44117;57.142;24.826;2022-09-13T16:43:23;11.40;99.90
58309;DHT22;44117;57.142;24.826;2022-09-13T16:45:50;11.30;99.90
58309;DHT22;44117;57.142;24.826;2022-09-13T16:48:17;11.20;99.90
58309;DHT22;44117;57.142;24.826;2022-09-13T16:50:44;11.20;99.90
58309;DHT22;44117;57.142;24.826;2022-09-13T16:53:12;11.20;99.90
58309;DHT22;44117;57.142;24.826;2022-09-13T16:55:39;11.20;99.90
58309;DHT22;44117;57.142;24.826;2022-09-13T16:58:06;11.10;99.90
58309;DHT22;44117;57.142;24.826;2022-09-13T17:00:34;11.10;99.90
58309;DHT22;44117;57.142;24.826;2022-09-13T17:03:01;11.10;99.90
58309;DHT22;44117;57.142;24.826;2022-09-13T17:05:29;11.00;99.90
58309;DHT22;44117;57.142;24.826;2022-09-13T17:07:56;11.00;99.90
58309;DHT22;44117;57.142;24.826;2022-09-13T17:10:23;10.90;99.90
58309;DHT22;44117;57.142;24.826;2022-09-13T17:12:51;10.90;99.90
58309;DHT22;44117;57.142;24.826;2022-09-13T17:15:18;10.90;99.90
58309;DHT22;44117;57.142;24.826;2022-09-13T17:17:45;11.00;99.90
58309;DHT22;44117;57.142;24.826;2022-09-13T17:20:14;11.00;99.90
58309;DHT22;44117;57.142;24.826;2022-09-13T17:22:41;11.10;99.90
58309;DHT22;44117;57.142;24.826;2022-09-13T17:25:09;11.10;99.90
58309;DHT22;44117;57.142;24.826;2022-09-13T17:27:36;11.10;99.90
58309;DHT22;44117;57.142;24.826;2022-09-13T17:30:04;11.10;99.90
58309;DHT22;44117;57.142;24.826;2022-09-13T17:32:32;11.10;99.90
58309;DHT22;44117;57.142;24.826;2022-09-13T17:35:00;11.10;99.90
58309;DHT22;44117;57.142;24.826;2022-09-13T17:37:27;11.00;99.90
58309;DHT22;44117;57.142;24.826;2022-09-13T17:39:54;10.90;99.90
58309;DHT22;44117;57.142;24.826;2022-09-13T17:42:22;10.80;99.90
58309;DHT22;44117;57.142;24.826;2022-09-13T17:44:49;10.80;99.90
58309;DHT22;44117;57.142;24.826;2022-09-13T17:47:17;10.80;99.90
58309;DHT22;44117;57.142;24.826;2022-09-13T17:49:44;10.80;99.90
58309;DHT22;44117;57.142;24.826;2022-09-13T17:52:13;10.80;99.90
58309;DHT22;44117;57.142;24.826;2022-09-13T17:54:40;10.80;99.90
58309;DHT22;44117;57.142;24.826;2022-09-13T17:57:07;10.80;99.90
58309;DHT22;44117;57.142;24.826;2022-09-13T17:59:37;10.80;99.90
58309;DHT22;44117;57.142;24.826;2022-09-13T18:02:05;10.80;99.90
58309;DHT22;44117;57.142;24.826;2022-09-13T18:04:32;10.80;99.90
58309;DHT22;44117;57.142;24.826;2022-09-13T18:07:00;10.80;99.90
58309;DHT22;44117;57.142;24.826;2022-09-13T18:09:27;10.80;99.90
58309;DHT22;44117;57.142;24.826;2022-09-13T18:11:54;10.80;99.90
58309;DHT22;44117;57.142;24.826;2022-09-13T18:14:22;10.90;99.90
58309;DHT22;44117;57.142;24.826;2022-09-13T18:16:50;10.90;99.90
58309;DHT22;44117;57.142;24.826;2022-09-13T18:19:22;11.00;99.90
58309;DHT22;44117;57.142;24.826;2022-09-13T18:22:09;10.90;99.90
58309;DHT22;44117;57.142;24.826;2022-09-13T18:24:36;11.00;99.90
58309;DHT22;44117;57.142;24.826;2022-09-13T18:27:04;11.00;99.90
58309;DHT22;44117;57.142;24.826;2022-09-13T18:29:31;11.00;99.90
58309;DHT22;44117;57.142;24.826;2022-09-13T18:31:59;11.00;99.90
58309;DHT22;44117;57.142;24.826;2022-09-13T18:34:26;11.00;99.90
58309;DHT22;44117;57.142;24.826;2022-09-13T18:36:54;11.10;99.90
58309;DHT22;44117;57.142;24.826;2022-09-13T18:39:21;11.00;99.90
58309;DHT22;44117;57.142;24.826;2022-09-13T18:41:49;11.00;99.90
58309;DHT22;44117;57.142;24.826;2022-09-13T18:44:17;11.10;99.90
58309;DHT22;44117;57.142;24.826;2022-09-13T18:46:44;11.10;99.90
58309;DHT22;44117;57.142;24.826;2022-09-13T18:49:13;11.10;99.90
58309;DHT22;44117;57.142;24.826;2022-09-13T18:51:42;11.00;99.90
58309;DHT22;44117;57.142;24.826;2022-09-13T18:54:12;11.10;99.90
58309;DHT22;44117;57.142;24.826;2022-09-13T18:56:40;11.10;99.90
58309;DHT22;44117;57.142;24.826;2022-09-13T18:59:09;11.10;99.90
58309;DHT22;44117;57.142;24.826;2022-09-13T19:01:39;11.10;99.90
58309;DHT22;44117;57.142;24.826;2022-09-13T19:04:13;11.10;99.90
58309;DHT22;44117;57.142;24.826;2022-09-13T19:06:44;11.10;99.90
58309;DHT22;44117;57.142;24.826;2022-09-13T19:09:12;11.00;99.90
58309;DHT22;44117;57.142;24.826;2022-09-13T19:11:42;11.10;99.90
58309;DHT22;44117;57.142;24.826;2022-09-13T19:14:18;11.10;99.90